sensor_id;sensor_type;location;lat;lon;timestamp;pressure;altitude;pressure_sealevel;temperature;humidity
69737;BME280;64476;55.004;73.342;2023-05-29T00:00:46;101178.81;;;10.53;57.62
69737;BME280;64476;55.004;73.342;2023-05-29T00:03:47;101181.28;;;10.54;57.38
69737;BME280;64476;55.004;73.342;2023-05-29T00:06:48;101181.81;;;10.58;56.47
69737;BME280;64476;55.004;73.342;2023-05-29T00:09:50;101180.06;;;10.58;57.18
69737;BME280;64476;55.004;73.342;2023-05-29T00:12:52;101190.94;;;10.63;57.15
69737;BME280;64476;55.004;73.342;2023-05-29T00:15:53;101187.06;;;10.67;57.20
69737;BME280;64476;55.004;73.342;2023-05-29T00:18:54;101191.19;;;10.70;56.93
69737;BME280;64476;55.004;73.342;2023-05-29T00:21:56;101183.84;;;10.73;56.58
69737;BME280;64476;55.004;73.342;2023-05-29T00:24:57;101187.31;;;10.74;56.64
69737;BME280;64476;55.004;73.342;2023-05-29T00:27:59;101191.44;;;10.77;56.62
69737;BME280;64476;55.004;73.342;2023-05-29T00:31:01;101178.84;;;10.80;56.88
69737;BME280;64476;55.004;73.342;2023-05-29T00:34:03;101186.56;;;10.82;56.48
69737;BME280;64476;55.004;73.342;2023-05-29T00:37:04;101178.25;;;10.86;56.00
69737;BME280;64476;55.004;73.342;2023-05-29T00:40:06;101187.34;;;10.92;55.89
69737;BME280;64476;55.004;73.342;2023-05-29T00:43:08;101190.34;;;10.97;55.58
69737;BME280;64476;55.004;73.342;2023-05-29T00:46:15;101152.09;;;10.85;55.27
69737;BME280;64476;55.004;73.342;2023-05-29T00:49:17;101176.56;;;11.13;54.75
69737;BME280;64476;55.004;73.342;2023-05-29T00:52:18;101175.66;;;11.22;54.62
69737;BME280;64476;55.004;73.342;2023-05-29T00:55:21;101178.09;;;11.33;54.66
69737;BME280;64476;55.004;73.342;2023-05-29T00:58:22;101169.13;;;11.44;54.46
69737;BME280;64476;55.004;73.342;2023-05-29T01:01:31;101174.84;;;11.57;54.35
69737;BME280;64476;55.004;73.342;2023-05-29T01:04:33;101173.97;;;11.66;53.90
69737;BME280;64476;55.004;73.342;2023-05-29T01:07:35;101179.28;;;11.75;54.07
69737;BME280;64476;55.004;73.342;2023-05-29T01:10:39;101171.63;;;11.81;54.31
69737;BME280;64476;55.004;73.342;2023-05-29T01:13:41;101180.56;;;11.88;53.71
69737;BME280;64476;55.004;73.342;2023-05-29T01:32:47;101166.44;;;12.50;52.61
69737;BME280;64476;55.004;73.342;2023-05-29T01:39:24;101163.09;;;12.74;52.68
69737;BME280;64476;55.004;73.342;2023-05-29T01:42:27;101164.28;;;12.79;53.15
69737;BME280;64476;55.004;73.342;2023-05-29T01:45:32;101164.94;;;12.89;52.29
69737;BME280;64476;55.004;73.342;2023-05-29T01:48:34;101173.06;;;12.96;52.59
69737;BME280;64476;55.004;73.342;2023-05-29T01:51:36;101160.72;;;13.05;51.95
69737;BME280;64476;55.004;73.342;2023-05-29T01:54:37;101169.97;;;13.17;51.98
69737;BME280;64476;55.004;73.342;2023-05-29T01:57:39;101168.66;;;13.29;51.48
69737;BME280;64476;55.004;73.342;2023-05-29T02:00:41;101166.22;;;13.44;51.50
69737;BME280;64476;55.004;73.342;2023-05-29T02:03:43;101168.69;;;13.62;51.26
69737;BME280;64476;55.004;73.342;2023-05-29T02:06:45;101159.97;;;13.78;50.84
69737;BME280;64476;55.004;73.342;2023-05-29T02:09:46;101162.75;;;13.93;50.44
69737;BME280;64476;55.004;73.342;2023-05-29T02:12:47;101166.88;;;14.03;50.05
69737;BME280;64476;55.004;73.342;2023-05-29T02:15:50;101166.88;;;14.12;50.48
69737;BME280;64476;55.004;73.342;2023-05-29T02:19:26;101161.22;;;14.23;49.89
69737;BME280;64476;55.004;73.342;2023-05-29T02:22:29;101164.84;;;14.30;49.56
69737;BME280;64476;55.004;73.342;2023-05-29T02:29:06;101147.53;;;14.58;49.34
69737;BME280;64476;55.004;73.342;2023-05-29T02:32:08;101160.06;;;14.73;49.02
69737;BME280;64476;55.004;73.342;2023-05-29T02:35:09;101149.91;;;14.85;48.60
69737;BME280;64476;55.004;73.342;2023-05-29T02:38:11;101147.88;;;14.95;48.45
69737;BME280;64476;55.004;73.342;2023-05-29T02:41:15;101150.31;;;15.04;48.20
69737;BME280;64476;55.004;73.342;2023-05-29T02:44:17;101149.25;;;15.14;47.93
69737;BME280;64476;55.004;73.342;2023-05-29T02:47:19;101150.59;;;15.33;47.70
69737;BME280;64476;55.004;73.342;2023-05-29T02:50:20;101144.47;;;15.55;47.16
69737;BME280;64476;55.004;73.342;2023-05-29T02:53:22;101138.34;;;15.77;46.74
69737;BME280;64476;55.004;73.342;2023-05-29T02:56:31;101139.28;;;15.99;46.09
69737;BME280;64476;55.004;73.342;2023-05-29T02:59:34;101146.03;;;16.17;45.76
69737;BME280;64476;55.004;73.342;2023-05-29T03:02:36;101139.09;;;16.31;45.38
69737;BME280;64476;55.004;73.342;2023-05-29T03:05:48;101141.75;;;16.45;45.15
69737;BME280;64476;55.004;73.342;2023-05-29T03:08:49;101140.94;;;16.60;44.99
69737;BME280;64476;55.004;73.342;2023-05-29T03:11:52;101139.28;;;16.73;44.65
69737;BME280;64476;55.004;73.342;2023-05-29T03:14:53;101131.28;;;16.88;43.73
69737;BME280;64476;55.004;73.342;2023-05-29T03:17:57;101136.25;;;16.98;43.30
69737;BME280;64476;55.004;73.342;2023-05-29T03:21:03;101135.97;;;17.08;43.42
69737;BME280;64476;55.004;73.342;2023-05-29T03:24:08;101139.94;;;17.18;43.60
69737;BME280;64476;55.004;73.342;2023-05-29T03:27:11;101133.47;;;17.28;43.53
69737;BME280;64476;55.004;73.342;2023-05-29T03:30:13;101122.78;;;17.36;43.27
69737;BME280;64476;55.004;73.342;2023-05-29T03:33:15;101130.16;;;17.40;43.12
69737;BME280;64476;55.004;73.342;2023-05-29T03:36:45;101123.13;;;17.54;42.94
69737;BME280;64476;55.004;73.342;2023-05-29T03:39:47;101126.31;;;17.71;42.80
69737;BME280;64476;55.004;73.342;2023-05-29T03:43:22;101122.72;;;17.85;41.43
69737;BME280;64476;55.004;73.342;2023-05-29T03:46:31;101124.19;;;17.88;42.12
69737;BME280;64476;55.004;73.342;2023-05-29T03:49:34;101124.03;;;17.96;41.94
69737;BME280;64476;55.004;73.342;2023-05-29T03:52:38;101120.59;;;18.02;41.80
69737;BME280;64476;55.004;73.342;2023-05-29T03:55:40;101119.63;;;18.10;41.58
69737;BME280;64476;55.004;73.342;2023-05-29T03:58:43;101116.88;;;18.25;41.60
69737;BME280;64476;55.004;73.342;2023-05-29T04:01:44;101119.97;;;18.35;41.29
69737;BME280;64476;55.004;73.342;2023-05-29T04:04:46;101110.41;;;18.47;40.53
69737;BME280;64476;55.004;73.342;2023-05-29T04:07:47;101111.25;;;18.54;40.02
69737;BME280;64476;55.004;73.342;2023-05-29T04:10:49;101114.16;;;18.66;39.86
69737;BME280;64476;55.004;73.342;2023-05-29T04:13:56;101107.03;;;18.80;39.01
69737;BME280;64476;55.004;73.342;2023-05-29T04:16:57;101103.97;;;18.89;39.37
69737;BME280;64476;55.004;73.342;2023-05-29T04:20:02;101095.22;;;19.02;39.36
69737;BME280;64476;55.004;73.342;2023-05-29T04:23:09;101100.38;;;19.17;38.94
69737;BME280;64476;55.004;73.342;2023-05-29T04:26:10;101096.06;;;19.29;38.55
69737;BME280;64476;55.004;73.342;2023-05-29T04:29:13;101089.69;;;19.37;38.66
69737;BME280;64476;55.004;73.342;2023-05-29T04:32:16;101089.28;;;19.47;37.61
69737;BME280;64476;55.004;73.342;2023-05-29T04:35:19;101084.97;;;19.59;37.84
69737;BME280;64476;55.004;73.342;2023-05-29T04:38:29;101086.44;;;19.68;37.78
69737;BME280;64476;55.004;73.342;2023-05-29T04:41:31;101082.09;;;19.80;37.23
69737;BME280;64476;55.004;73.342;2023-05-29T04:44:34;101090.47;;;19.97;37.87
69737;BME280;64476;55.004;73.342;2023-05-29T04:47:36;101081.78;;;20.15;37.71
69737;BME280;64476;55.004;73.342;2023-05-29T04:50:46;101079.25;;;20.33;37.02
69737;BME280;64476;55.004;73.342;2023-05-29T04:54:19;101083.75;;;20.46;37.21
69737;BME280;64476;55.004;73.342;2023-05-29T04:57:21;101085.59;;;20.46;35.99
69737;BME280;64476;55.004;73.342;2023-05-29T05:00:23;101083.34;;;20.43;35.41
69737;BME280;64476;55.004;73.342;2023-05-29T05:03:26;101077.75;;;20.51;35.57
69737;BME280;64476;55.004;73.342;2023-05-29T05:06:31;101068.88;;;20.64;34.74
69737;BME280;64476;55.004;73.342;2023-05-29T05:09:33;101065.28;;;20.76;35.87
69737;BME280;64476;55.004;73.342;2023-05-29T05:12:37;101056.84;;;20.79;35.68
69737;BME280;64476;55.004;73.342;2023-05-29T05:18:54;101053.53;;;21.16;33.72
69737;BME280;64476;55.004;73.342;2023-05-29T05:21:58;101053.63;;;21.27;34.51
69737;BME280;64476;55.004;73.342;2023-05-29T05:24:59;101056.78;;;21.43;34.96
69737;BME280;64476;55.004;73.342;2023-05-29T05:28:02;101048.56;;;21.63;34.57
69737;BME280;64476;55.004;73.342;2023-05-29T05:31:08;101041.28;;;21.70;33.78
69737;BME280;64476;55.004;73.342;2023-05-29T05:34:14;101047.31;;;21.65;33.77
69737;BME280;64476;55.004;73.342;2023-05-29T05:37:19;101040.09;;;21.66;32.52
69737;BME280;64476;55.004;73.342;2023-05-29T05:40:20;101034.97;;;21.64;33.19
69737;BME280;64476;55.004;73.342;2023-05-29T05:43:32;101041.38;;;21.63;33.51
69737;BME280;64476;55.004;73.342;2023-05-29T05:46:54;101033.78;;;21.60;33.49
69737;BME280;64476;55.004;73.342;2023-05-29T05:49:58;101030.50;;;21.58;33.80
69737;BME280;64476;55.004;73.342;2023-05-29T05:52:59;101021.16;;;21.67;33.63
69737;BME280;64476;55.004;73.342;2023-05-29T05:56:01;101025.25;;;21.88;32.78
69737;BME280;64476;55.004;73.342;2023-05-29T05:59:03;101021.50;;;21.96;32.44
69737;BME280;64476;55.004;73.342;2023-05-29T06:02:05;101013.97;;;22.05;32.54
69737;BME280;64476;55.004;73.342;2023-05-29T06:05:08;101019.59;;;22.15;32.06
69737;BME280;64476;55.004;73.342;2023-05-29T06:08:11;101007.53;;;22.24;30.73
69737;BME280;64476;55.004;73.342;2023-05-29T06:11:13;101000.09;;;22.26;31.37
69737;BME280;64476;55.004;73.342;2023-05-29T06:14:19;100992.31;;;22.36;31.39
69737;BME280;64476;55.004;73.342;2023-05-29T06:17:24;100997.69;;;22.66;31.46
69737;BME280;64476;55.004;73.342;2023-05-29T06:24:00;100991.34;;;23.26;31.22
69737;BME280;64476;55.004;73.342;2023-05-29T06:27:02;100985.97;;;23.38;30.73
69737;BME280;64476;55.004;73.342;2023-05-29T06:30:04;100984.47;;;23.30;30.15
69737;BME280;64476;55.004;73.342;2023-05-29T06:33:09;100989.50;;;23.15;30.68
69737;BME280;64476;55.004;73.342;2023-05-29T06:36:14;100987.25;;;23.00;30.79
69737;BME280;64476;55.004;73.342;2023-05-29T06:39:15;100995.84;;;23.02;30.36
69737;BME280;64476;55.004;73.342;2023-05-29T06:42:21;100991.09;;;22.92;31.16
69737;BME280;64476;55.004;73.342;2023-05-29T06:45:43;100930.69;;;22.55;31.36
69737;BME280;64476;55.004;73.342;2023-05-29T06:48:46;100987.25;;;22.88;30.87
69737;BME280;64476;55.004;73.342;2023-05-29T06:51:47;100986.28;;;22.71;30.33
69737;BME280;64476;55.004;73.342;2023-05-29T06:55:00;100981.94;;;22.58;31.31
69737;BME280;64476;55.004;73.342;2023-05-29T06:58:06;100976.63;;;22.70;30.73
69737;BME280;64476;55.004;73.342;2023-05-29T07:01:07;100976.88;;;22.92;30.78
69737;BME280;64476;55.004;73.342;2023-05-29T07:04:25;100970.47;;;23.05;30.65
69737;BME280;64476;55.004;73.342;2023-05-29T07:07:28;100960.09;;;23.08;29.91
69737;BME280;64476;55.004;73.342;2023-05-29T07:10:29;100951.72;;;23.16;30.47
69737;BME280;64476;55.004;73.342;2023-05-29T07:13:37;100958.47;;;23.31;30.15
69737;BME280;64476;55.004;73.342;2023-05-29T07:16:39;100959.72;;;23.52;30.23
69737;BME280;64476;55.004;73.342;2023-05-29T07:19:42;100956.19;;;23.63;29.92
69737;BME280;64476;55.004;73.342;2023-05-29T07:22:51;100940.09;;;23.75;29.92
69737;BME280;64476;55.004;73.342;2023-05-29T07:25:54;100943.88;;;23.90;29.54
69737;BME280;64476;55.004;73.342;2023-05-29T07:28:58;100952.03;;;23.96;29.33
69737;BME280;64476;55.004;73.342;2023-05-29T07:31:59;100952.94;;;24.01;29.89
69737;BME280;64476;55.004;73.342;2023-05-29T07:35:01;100960.84;;;24.08;29.20
69737;BME280;64476;55.004;73.342;2023-05-29T07:38:04;100944.81;;;24.13;29.55
69737;BME280;64476;55.004;73.342;2023-05-29T07:41:06;100939.75;;;24.28;28.75
69737;BME280;64476;55.004;73.342;2023-05-29T07:44:11;100936.00;;;24.29;29.14
69737;BME280;64476;55.004;73.342;2023-05-29T07:47:14;100932.81;;;24.32;29.16
69737;BME280;64476;55.004;73.342;2023-05-29T07:50:20;100923.44;;;24.35;29.33
69737;BME280;64476;55.004;73.342;2023-05-29T07:53:23;100916.63;;;24.27;28.73
69737;BME280;64476;55.004;73.342;2023-05-29T07:56:31;100916.47;;;24.34;29.34
69737;BME280;64476;55.004;73.342;2023-05-29T07:59:52;100905.34;;;24.42;29.13
69737;BME280;64476;55.004;73.342;2023-05-29T08:02:57;100908.13;;;24.47;29.04
69737;BME280;64476;55.004;73.342;2023-05-29T08:06:05;100911.84;;;24.46;28.49
69737;BME280;64476;55.004;73.342;2023-05-29T08:09:10;100908.41;;;24.34;28.80
69737;BME280;64476;55.004;73.342;2023-05-29T08:12:13;100907.50;;;24.11;29.41
69737;BME280;64476;55.004;73.342;2023-05-29T08:15:14;100911.31;;;23.99;29.12
69737;BME280;64476;55.004;73.342;2023-05-29T08:18:18;100907.69;;;23.93;28.74
69737;BME280;64476;55.004;73.342;2023-05-29T08:21:21;100907.09;;;24.03;29.73
69737;BME280;64476;55.004;73.342;2023-05-29T08:24:28;100909.84;;;24.08;29.08
69737;BME280;64476;55.004;73.342;2023-05-29T08:27:30;100900.66;;;24.04;29.01
69737;BME280;64476;55.004;73.342;2023-05-29T08:30:31;100891.00;;;23.91;29.38
69737;BME280;64476;55.004;73.342;2023-05-29T08:33:33;100890.47;;;23.89;29.81
69737;BME280;64476;55.004;73.342;2023-05-29T08:36:36;100894.28;;;23.93;29.30
69737;BME280;64476;55.004;73.342;2023-05-29T08:39:38;100896.50;;;23.96;30.17
69737;BME280;64476;55.004;73.342;2023-05-29T08:42:45;100891.78;;;24.03;29.50
69737;BME280;64476;55.004;73.342;2023-05-29T08:45:48;100888.78;;;24.16;29.39
69737;BME280;64476;55.004;73.342;2023-05-29T08:48:53;100887.19;;;24.32;29.41
69737;BME280;64476;55.004;73.342;2023-05-29T08:52:32;100890.63;;;24.45;28.16
69737;BME280;64476;55.004;73.342;2023-05-29T08:55:36;100896.44;;;24.25;29.12
69737;BME280;64476;55.004;73.342;2023-05-29T08:58:38;100899.25;;;24.01;29.66
69737;BME280;64476;55.004;73.342;2023-05-29T09:01:39;100889.50;;;23.95;30.00
69737;BME280;64476;55.004;73.342;2023-05-29T09:04:41;100898.59;;;23.94;29.87
69737;BME280;64476;55.004;73.342;2023-05-29T09:07:47;100891.00;;;23.91;29.52
69737;BME280;64476;55.004;73.342;2023-05-29T09:10:52;100883.63;;;23.81;29.32
69737;BME280;64476;55.004;73.342;2023-05-29T09:13:53;100890.13;;;23.85;29.92
69737;BME280;64476;55.004;73.342;2023-05-29T09:17:31;100880.38;;;23.96;28.98
69737;BME280;64476;55.004;73.342;2023-05-29T09:20:33;100872.41;;;24.01;29.45
69737;BME280;64476;55.004;73.342;2023-05-29T09:24:08;100876.50;;;24.04;29.71
69737;BME280;64476;55.004;73.342;2023-05-29T09:27:22;100884.06;;;24.07;29.44
69737;BME280;64476;55.004;73.342;2023-05-29T09:30:31;100891.38;;;24.11;29.91
69737;BME280;64476;55.004;73.342;2023-05-29T09:33:32;100896.59;;;24.18;29.50
69737;BME280;64476;55.004;73.342;2023-05-29T09:36:34;100889.69;;;24.22;29.21
69737;BME280;64476;55.004;73.342;2023-05-29T09:42:43;100894.25;;;24.22;29.01
69737;BME280;64476;55.004;73.342;2023-05-29T09:45:45;100887.75;;;24.17;29.34
69737;BME280;64476;55.004;73.342;2023-05-29T09:48:47;100898.31;;;24.24;29.21
69737;BME280;64476;55.004;73.342;2023-05-29T09:51:52;100897.88;;;24.44;28.96
69737;BME280;64476;55.004;73.342;2023-05-29T09:54:58;100905.84;;;24.39;29.01
69737;BME280;64476;55.004;73.342;2023-05-29T09:58:01;100906.19;;;24.31;29.06
69737;BME280;64476;55.004;73.342;2023-05-29T10:01:03;100908.66;;;24.32;29.29
69737;BME280;64476;55.004;73.342;2023-05-29T10:04:05;100911.34;;;24.32;29.10
69737;BME280;64476;55.004;73.342;2023-05-29T10:07:08;100905.00;;;24.38;29.19
69737;BME280;64476;55.004;73.342;2023-05-29T10:10:13;100900.63;;;24.49;29.05
69737;BME280;64476;55.004;73.342;2023-05-29T10:13:15;100898.25;;;24.36;28.55
69737;BME280;64476;55.004;73.342;2023-05-29T10:16:20;100904.00;;;24.11;29.17
69737;BME280;64476;55.004;73.342;2023-05-29T10:19:25;100903.25;;;23.99;29.61
69737;BME280;64476;55.004;73.342;2023-05-29T10:22:36;100902.59;;;23.91;29.64
69737;BME280;64476;55.004;73.342;2023-05-29T10:25:42;100894.88;;;24.12;28.96
69737;BME280;64476;55.004;73.342;2023-05-29T10:28:49;100905.16;;;24.32;29.43
69737;BME280;64476;55.004;73.342;2023-05-29T10:38:47;100896.22;;;23.81;29.91
69737;BME280;64476;55.004;73.342;2023-05-29T10:41:49;100908.00;;;23.68;30.01
69737;BME280;64476;55.004;73.342;2023-05-29T10:48:36;100908.03;;;23.56;30.26
69737;BME280;64476;55.004;73.342;2023-05-29T10:51:41;100899.84;;;23.75;30.34
69737;BME280;64476;55.004;73.342;2023-05-29T10:58:20;100895.66;;;24.41;29.75
69737;BME280;64476;55.004;73.342;2023-05-29T11:01:31;100889.56;;;24.62;29.54
69737;BME280;64476;55.004;73.342;2023-05-29T11:04:33;100883.38;;;24.45;29.49
69737;BME280;64476;55.004;73.342;2023-05-29T11:07:35;100891.22;;;24.18;29.90
69737;BME280;64476;55.004;73.342;2023-05-29T11:13:54;100877.94;;;23.66;30.60
69737;BME280;64476;55.004;73.342;2023-05-29T11:16:56;100887.78;;;23.49;30.40
69737;BME280;64476;55.004;73.342;2023-05-29T11:20:02;100885.28;;;23.30;30.53
69737;BME280;64476;55.004;73.342;2023-05-29T11:23:07;100880.97;;;23.06;31.24
69737;BME280;64476;55.004;73.342;2023-05-29T11:26:09;100886.25;;;22.89;31.18
69737;BME280;64476;55.004;73.342;2023-05-29T11:29:13;100879.50;;;22.63;31.35
69737;BME280;64476;55.004;73.342;2023-05-29T11:32:16;100903.09;;;22.54;31.77
69737;BME280;64476;55.004;73.342;2023-05-29T11:35:18;100901.44;;;22.41;31.73
69737;BME280;64476;55.004;73.342;2023-05-29T11:38:20;100910.97;;;22.25;32.15
69737;BME280;64476;55.004;73.342;2023-05-29T11:41:31;100911.75;;;22.14;32.17
69737;BME280;64476;55.004;73.342;2023-05-29T11:44:37;100915.19;;;22.03;32.72
69737;BME280;64476;55.004;73.342;2023-05-29T11:47:56;100911.66;;;21.91;32.73
69737;BME280;64476;55.004;73.342;2023-05-29T11:50:58;100927.41;;;21.81;33.29
69737;BME280;64476;55.004;73.342;2023-05-29T11:54:01;100930.81;;;21.69;33.58
69737;BME280;64476;55.004;73.342;2023-05-29T11:57:03;100931.13;;;21.61;33.89
69737;BME280;64476;55.004;73.342;2023-05-29T12:00:06;100931.06;;;21.49;34.31
69737;BME280;64476;55.004;73.342;2023-05-29T12:03:11;100924.69;;;21.32;34.10
69737;BME280;64476;55.004;73.342;2023-05-29T12:06:13;100916.81;;;21.19;34.17
69737;BME280;64476;55.004;73.342;2023-05-29T12:09:27;100917.91;;;21.11;34.18
69737;BME280;64476;55.004;73.342;2023-05-29T12:12:29;100910.38;;;21.01;34.53
69737;BME280;64476;55.004;73.342;2023-05-29T12:15:31;100914.16;;;20.94;34.58
69737;BME280;64476;55.004;73.342;2023-05-29T12:18:32;100911.31;;;20.89;34.57
69737;BME280;64476;55.004;73.342;2023-05-29T12:21:34;100917.56;;;20.82;35.27
69737;BME280;64476;55.004;73.342;2023-05-29T12:24:37;100927.63;;;20.80;35.21
69737;BME280;64476;55.004;73.342;2023-05-29T12:27:38;100920.28;;;20.76;35.44
69737;BME280;64476;55.004;73.342;2023-05-29T12:30:45;100924.44;;;20.72;35.56
69737;BME280;64476;55.004;73.342;2023-05-29T12:33:50;100922.41;;;20.67;35.46
69737;BME280;64476;55.004;73.342;2023-05-29T12:36:52;100915.66;;;20.65;35.64
69737;BME280;64476;55.004;73.342;2023-05-29T12:43:16;100911.13;;;20.65;35.83
69737;BME280;64476;55.004;73.342;2023-05-29T12:46:18;100916.69;;;20.64;35.96
69737;BME280;64476;55.004;73.342;2023-05-29T12:49:52;100913.66;;;20.60;36.04
69737;BME280;64476;55.004;73.342;2023-05-29T12:55:56;100928.28;;;20.51;36.26
69737;BME280;64476;55.004;73.342;2023-05-29T12:58:58;100925.66;;;20.44;36.77
69737;BME280;64476;55.004;73.342;2023-05-29T13:02:02;100918.69;;;20.37;36.18
69737;BME280;64476;55.004;73.342;2023-05-29T13:05:06;100918.75;;;20.30;36.51
69737;BME280;64476;55.004;73.342;2023-05-29T13:08:09;100914.94;;;20.19;36.61
69737;BME280;64476;55.004;73.342;2023-05-29T13:11:11;100906.38;;;20.10;36.40
69737;BME280;64476;55.004;73.342;2023-05-29T13:14:12;100911.72;;;20.04;37.26
69737;BME280;64476;55.004;73.342;2023-05-29T13:17:15;100905.41;;;19.98;37.52
69737;BME280;64476;55.004;73.342;2023-05-29T13:20:16;100904.00;;;19.96;37.15
69737;BME280;64476;55.004;73.342;2023-05-29T13:23:18;100896.63;;;19.91;37.90
69737;BME280;64476;55.004;73.342;2023-05-29T13:26:19;100900.75;;;19.87;37.44
69737;BME280;64476;55.004;73.342;2023-05-29T13:29:23;100906.50;;;19.84;37.37
69737;BME280;64476;55.004;73.342;2023-05-29T13:32:24;100910.41;;;19.81;38.17
69737;BME280;64476;55.004;73.342;2023-05-29T13:35:25;100913.31;;;19.80;37.85
69737;BME280;64476;55.004;73.342;2023-05-29T13:38:39;100913.34;;;19.73;38.13
69737;BME280;64476;55.004;73.342;2023-05-29T13:41:41;100915.81;;;19.68;38.47
69737;BME280;64476;55.004;73.342;2023-05-29T13:44:42;100918.88;;;19.65;39.21
69737;BME280;64476;55.004;73.342;2023-05-29T13:47:44;100914.81;;;19.56;39.21
69737;BME280;64476;55.004;73.342;2023-05-29T13:50:46;100921.00;;;19.50;39.58
69737;BME280;64476;55.004;73.342;2023-05-29T13:53:48;100926.75;;;19.40;40.12
69737;BME280;64476;55.004;73.342;2023-05-29T13:56:49;100923.50;;;19.31;40.05
69737;BME280;64476;55.004;73.342;2023-05-29T13:59:51;100927.22;;;19.24;41.28
69737;BME280;64476;55.004;73.342;2023-05-29T14:02:54;100930.31;;;19.14;41.58
69737;BME280;64476;55.004;73.342;2023-05-29T14:05:55;100923.13;;;19.01;42.75
69737;BME280;64476;55.004;73.342;2023-05-29T14:08:57;100941.56;;;18.89;43.87
69737;BME280;64476;55.004;73.342;2023-05-29T14:11:58;100959.19;;;18.77;43.68
69737;BME280;64476;55.004;73.342;2023-05-29T14:15:00;100953.66;;;18.65;44.20
69737;BME280;64476;55.004;73.342;2023-05-29T14:18:02;100961.22;;;18.55;46.53
69737;BME280;64476;55.004;73.342;2023-05-29T14:21:04;100955.28;;;18.47;45.53
69737;BME280;64476;55.004;73.342;2023-05-29T14:24:05;100959.94;;;18.38;45.63
69737;BME280;64476;55.004;73.342;2023-05-29T14:27:08;100963.00;;;18.28;45.62
69737;BME280;64476;55.004;73.342;2023-05-29T14:30:10;100959.91;;;18.18;46.30
69737;BME280;64476;55.004;73.342;2023-05-29T14:33:11;100952.50;;;18.07;46.81
69737;BME280;64476;55.004;73.342;2023-05-29T14:36:13;100960.00;;;17.97;46.88
69737;BME280;64476;55.004;73.342;2023-05-29T14:39:14;100962.63;;;17.90;47.12
69737;BME280;64476;55.004;73.342;2023-05-29T14:42:16;100959.94;;;17.83;47.23
69737;BME280;64476;55.004;73.342;2023-05-29T14:45:18;100960.34;;;17.74;47.72
69737;BME280;64476;55.004;73.342;2023-05-29T14:48:19;100960.31;;;17.67;48.36
69737;BME280;64476;55.004;73.342;2023-05-29T14:51:31;100958.41;;;17.61;48.27
69737;BME280;64476;55.004;73.342;2023-05-29T14:54:34;100960.22;;;17.54;49.10
69737;BME280;64476;55.004;73.342;2023-05-29T14:57:35;100956.53;;;17.48;48.65
69737;BME280;64476;55.004;73.342;2023-05-29T15:00:37;100951.81;;;17.43;49.39
69737;BME280;64476;55.004;73.342;2023-05-29T15:03:39;100962.19;;;17.38;50.47
69737;BME280;64476;55.004;73.342;2023-05-29T15:06:40;100960.47;;;17.31;49.73
69737;BME280;64476;55.004;73.342;2023-05-29T15:09:42;100958.63;;;17.25;50.42
69737;BME280;64476;55.004;73.342;2023-05-29T15:12:43;100950.38;;;17.19;49.78
69737;BME280;64476;55.004;73.342;2023-05-29T15:15:44;100966.69;;;17.16;50.07
69737;BME280;64476;55.004;73.342;2023-05-29T15:18:46;100959.31;;;17.12;50.84
69737;BME280;64476;55.004;73.342;2023-05-29T15:21:50;100963.19;;;17.09;51.43
69737;BME280;64476;55.004;73.342;2023-05-29T15:24:52;100954.78;;;17.06;51.30
69737;BME280;64476;55.004;73.342;2023-05-29T15:27:54;100953.53;;;17.02;52.17
69737;BME280;64476;55.004;73.342;2023-05-29T15:30:56;100962.88;;;16.97;51.41
69737;BME280;64476;55.004;73.342;2023-05-29T15:34:29;100954.69;;;16.92;51.85
69737;BME280;64476;55.004;73.342;2023-05-29T15:37:30;100952.41;;;16.89;52.03
69737;BME280;64476;55.004;73.342;2023-05-29T15:40:32;100944.84;;;16.86;52.24
69737;BME280;64476;55.004;73.342;2023-05-29T15:43:34;100950.72;;;16.82;52.52
69737;BME280;64476;55.004;73.342;2023-05-29T15:46:35;100946.63;;;16.79;52.38
69737;BME280;64476;55.004;73.342;2023-05-29T15:49:37;100946.38;;;16.74;52.46
69737;BME280;64476;55.004;73.342;2023-05-29T15:52:38;100947.94;;;16.68;52.70
69737;BME280;64476;55.004;73.342;2023-05-29T15:55:39;100929.16;;;16.63;51.97
69737;BME280;64476;55.004;73.342;2023-05-29T15:58:41;100928.69;;;16.60;53.50
69737;BME280;64476;55.004;73.342;2023-05-29T16:01:43;100922.38;;;16.61;52.29
69737;BME280;64476;55.004;73.342;2023-05-29T16:04:44;100922.22;;;16.62;52.20
69737;BME280;64476;55.004;73.342;2023-05-29T16:07:46;100921.34;;;16.62;52.39
69737;BME280;64476;55.004;73.342;2023-05-29T16:10:48;100917.06;;;16.61;52.80
69737;BME280;64476;55.004;73.342;2023-05-29T16:13:49;100923.63;;;16.65;51.92
69737;BME280;64476;55.004;73.342;2023-05-29T16:16:51;100921.19;;;16.63;51.70
69737;BME280;64476;55.004;73.342;2023-05-29T16:19:52;100929.16;;;16.63;52.09
69737;BME280;64476;55.004;73.342;2023-05-29T16:22:57;100939.75;;;16.63;52.49
69737;BME280;64476;55.004;73.342;2023-05-29T16:26:00;100944.25;;;16.63;51.94
69737;BME280;64476;55.004;73.342;2023-05-29T16:29:02;100946.53;;;16.66;51.48
69737;BME280;64476;55.004;73.342;2023-05-29T16:32:04;100948.16;;;16.67;51.92
69737;BME280;64476;55.004;73.342;2023-05-29T16:38:39;100951.25;;;16.70;51.85
69737;BME280;64476;55.004;73.342;2023-05-29T16:41:40;100953.69;;;16.72;51.58
69737;BME280;64476;55.004;73.342;2023-05-29T16:44:42;100953.69;;;16.72;51.76
69737;BME280;64476;55.004;73.342;2023-05-29T16:47:44;100959.00;;;16.72;51.86
69737;BME280;64476;55.004;73.342;2023-05-29T16:50:45;100962.88;;;16.69;52.23